Decoded Metar for EGUN (MILDENHALL in ENGLAND) (IATA:MHZ) | Meteo·Mobile Aviation Weather
aviador You're here:

EGUN Decoded Metar

MILDENHALL in ENGLAND
Report Time2018-12-11 01:56:00
UTC Time2018-12-11 02:38:41
Flight Rules mvfr MVFR
Wind110° at 03 kt
W.Decomp.*RWY 11: 3.0 kt HW 0.1 kt RCW
W.Rank110° ranks 35
Current wind is below 110° avg. (6.9)
Visibility9999 m
Phenomena:N/A
Clouds:Overcast 028 Hf
Ceiling2,800 ft
Temp02°C (ISA -13)
Dew Point02°C (100% RH)
AAT-0.8°C
QNH1026 hPa
Density Alt-1,886 ft
Elevation33 ft
Report Wrong Elevation
Raw Report
EGUN 110156Z 11003KT 9999 OVC028 02/02 A3030 RMK AO2A SLP264
T00240024 .=

Extra information for EGUN:More info

Metar Taf Metar & Taf Last 4 Metars F.Rules Stats Wind Profile Meteogram Temp Stats Airport Information Weather charts Add Link Nearby VenuesMetar ALERT Operation Metar Decoded Social comments